createdAt,value
2022-08-20T00:02:09.520Z,69.15
2022-08-20T00:04:36.748Z,69.59
2022-08-20T00:07:07.622Z,70.18
2022-08-20T00:09:36.463Z,70.03
2022-08-20T00:12:05.443Z,69.58
2022-08-20T00:14:33.914Z,69.54
2022-08-20T00:17:01.772Z,70.39
2022-08-20T00:19:29.577Z,69.82
2022-08-20T00:21:57.562Z,70.15
2022-08-20T00:24:25.652Z,70.42
2022-08-20T00:26:52.738Z,69.92
2022-08-20T00:29:20.500Z,70.18
2022-08-20T00:31:49.352Z,69.79
2022-08-20T00:34:16.098Z,70.19
2022-08-20T00:36:42.721Z,70.02
2022-08-20T00:39:09.339Z,70.40
2022-08-20T00:41:35.924Z,70.77
2022-08-20T00:44:15.670Z,70.27
2022-08-20T00:46:43.910Z,69.35
2022-08-20T00:49:17.436Z,68.87
2022-08-20T00:51:55.505Z,68.42
2022-08-20T00:54:57.960Z,69.71
2022-08-20T00:57:54.809Z,68.74
2022-08-20T01:00:37.749Z,69.36
2022-08-20T01:03:09.776Z,69.64
2022-08-20T01:05:38.403Z,68.96
2022-08-20T01:08:05.864Z,69.11
2022-08-20T01:10:37.198Z,69.46
2022-08-20T01:13:10.915Z,69.92
2022-08-20T01:15:43.607Z,69.67
2022-08-20T01:18:18.273Z,70.41
2022-08-20T01:21:00.737Z,71.00
2022-08-20T01:23:54.356Z,71.07
2022-08-20T01:26:39.954Z,70.99
2022-08-20T01:29:29.418Z,70.70
2022-08-20T01:32:01.446Z,71.37
2022-08-20T01:34:31.826Z,70.92
2022-08-20T01:36:58.880Z,71.71
2022-08-20T01:39:32.467Z,70.79
2022-08-20T01:42:02.022Z,70.76
2022-08-20T01:44:29.796Z,70.37
2022-08-20T01:46:59.602Z,71.13
2022-08-20T01:49:29.843Z,70.75
2022-08-20T01:52:00.877Z,71.06
2022-08-20T01:54:28.440Z,71.11
2022-08-20T01:57:10.516Z,71.34
2022-08-20T01:59:37.366Z,70.83
2022-08-20T02:02:04.540Z,70.92
2022-08-20T02:04:31.314Z,71.24
2022-08-20T02:07:01.642Z,71.53
2022-08-20T02:09:30.864Z,72.28
2022-08-20T02:11:58.017Z,72.47
2022-08-20T02:14:26.478Z,72.90
2022-08-20T02:16:54.909Z,73.34
2022-08-20T02:19:41.275Z,73.02
2022-08-20T02:22:20.286Z,72.08
2022-08-20T02:24:48.723Z,72.40
2022-08-20T02:27:15.860Z,72.94
2022-08-20T02:29:42.546Z,72.80
2022-08-20T02:32:24.227Z,72.56
2022-08-20T02:34:56.094Z,72.43
2022-08-20T02:37:22.704Z,72.47
2022-08-20T02:39:49.457Z,72.21
2022-08-20T02:42:16.888Z,72.62
2022-08-20T02:44:43.586Z,73.06
2022-08-20T02:47:10.140Z,72.37
2022-08-20T02:49:36.895Z,72.99
2022-08-20T02:52:03.725Z,72.50
2022-08-20T02:54:30.646Z,72.30
2022-08-20T02:56:57.298Z,72.31
2022-08-20T02:59:24.084Z,72.06
2022-08-20T03:01:59.495Z,72.01
2022-08-20T03:04:28.476Z,72.52
2022-08-20T03:06:55.091Z,72.34
2022-08-20T03:09:21.857Z,72.75
2022-08-20T03:11:48.835Z,72.28
2022-08-20T03:14:15.448Z,72.63
2022-08-20T03:16:43.058Z,73.08
2022-08-20T03:19:09.694Z,72.85
2022-08-20T03:21:36.759Z,72.98
2022-08-20T03:24:03.613Z,73.44
2022-08-20T03:26:30.231Z,73.58
2022-08-20T03:28:57.221Z,73.39
2022-08-20T03:31:23.934Z,73.60
2022-08-20T03:33:53.568Z,73.37
2022-08-20T03:36:24.202Z,72.23
2022-08-20T03:38:59.232Z,72.38
2022-08-20T03:41:26.490Z,72.32
2022-08-20T03:43:53.349Z,72.87
2022-08-20T03:46:23.185Z,72.83
2022-08-20T03:49:00.264Z,72.79
2022-08-20T03:51:31.826Z,73.51
2022-08-20T03:54:18.308Z,73.17
2022-08-20T03:56:45.028Z,72.85
2022-08-20T03:59:11.633Z,72.79
2022-08-20T04:01:46.071Z,72.90
2022-08-20T04:04:14.839Z,73.26
2022-08-20T04:06:42.778Z,73.97
2022-08-20T04:09:11.954Z,73.30
2022-08-20T04:11:39.328Z,72.00
2022-08-20T04:14:05.946Z,71.97
2022-08-20T04:16:33.519Z,72.72
2022-08-20T04:19:02.352Z,72.97
2022-08-20T04:21:33.818Z,74.00
2022-08-20T04:24:03.040Z,74.16
2022-08-20T04:26:30.387Z,74.52
2022-08-20T04:28:57.181Z,74.19
2022-08-20T04:31:33.308Z,74.04
2022-08-20T04:34:04.940Z,74.27
2022-08-20T04:36:31.624Z,74.40
2022-08-20T04:38:58.259Z,74.11
2022-08-20T04:41:24.934Z,73.97
2022-08-20T04:43:54.057Z,74.30
2022-08-20T04:46:23.628Z,73.63
2022-08-20T04:48:50.806Z,74.01
2022-08-20T04:51:18.681Z,72.19
2022-08-20T04:53:51.994Z,73.37
2022-08-20T04:56:23.247Z,73.16
2022-08-20T04:58:51.174Z,72.96
2022-08-20T05:01:18.309Z,72.34
2022-08-20T05:03:47.622Z,72.57
2022-08-20T05:06:16.070Z,72.36
2022-08-20T05:08:42.740Z,71.82
2022-08-20T05:11:34.389Z,73.99
2022-08-20T05:13:57.395Z,73.66
2022-08-20T05:16:24.511Z,73.53
2022-08-20T05:18:52.762Z,75.51
2022-08-20T05:21:20.589Z,73.12
2022-08-20T05:23:47.353Z,72.71
2022-08-20T05:26:16.017Z,72.29
2022-08-20T05:28:54.031Z,73.72
2022-08-20T05:31:31.734Z,73.77
2022-08-20T05:34:09.580Z,74.75
2022-08-20T05:36:42.493Z,73.85
2022-08-20T05:39:10.371Z,69.66
2022-08-20T05:41:38.650Z,70.82
2022-08-20T05:44:09.784Z,70.03
2022-08-20T05:46:40.454Z,70.95
2022-08-20T05:49:09.122Z,70.34
2022-08-20T05:51:36.932Z,70.42
2022-08-20T05:54:05.896Z,69.16
2022-08-20T05:56:33.912Z,68.86
2022-08-20T05:59:04.731Z,71.23
2022-08-20T06:01:33.567Z,73.25
2022-08-20T06:04:19.228Z,72.13
2022-08-20T06:06:47.403Z,71.58
2022-08-20T06:09:30.678Z,71.58
2022-08-20T06:12:06.207Z,71.48
2022-08-20T06:14:33.818Z,72.03
2022-08-20T06:17:06.485Z,73.60
2022-08-20T06:19:35.106Z,73.07
2022-08-20T06:22:08.683Z,72.13
2022-08-20T06:24:44.853Z,69.90
2022-08-20T06:27:15.546Z,68.41
2022-08-20T06:29:42.290Z,68.12
2022-08-20T06:32:08.883Z,68.00
2022-08-20T06:34:35.636Z,68.75
2022-08-20T06:37:02.260Z,69.91
2022-08-20T06:39:31.114Z,69.97
2022-08-20T06:41:58.636Z,70.29
2022-08-20T06:44:25.939Z,71.10
2022-08-20T06:46:52.619Z,69.88
2022-08-20T06:49:19.184Z,70.27
2022-08-20T06:51:45.694Z,71.52
2022-08-20T06:54:17.270Z,68.85
2022-08-20T06:56:44.132Z,69.11
2022-08-20T06:59:10.937Z,68.13
2022-08-20T07:01:37.545Z,68.25
2022-08-20T07:04:05.573Z,67.05
2022-08-20T07:06:32.182Z,67.11
2022-08-20T07:08:58.860Z,65.97
2022-08-20T07:11:28.511Z,65.20
2022-08-20T07:13:58.303Z,63.42
2022-08-20T07:16:25.606Z,64.24
2022-08-20T07:18:52.200Z,61.69
2022-08-20T07:21:18.832Z,62.97
2022-08-20T07:23:45.922Z,64.45
2022-08-20T07:26:13.253Z,59.58
2022-08-20T07:28:39.995Z,62.05
2022-08-20T07:31:25.800Z,59.79
2022-08-20T07:33:53.692Z,60.42
2022-08-20T07:36:20.363Z,61.35
2022-08-20T07:38:48.246Z,60.41
2022-08-20T07:41:15.244Z,59.33
2022-08-20T07:43:45.768Z,60.64
2022-08-20T07:46:15.731Z,59.56
2022-08-20T07:48:49.614Z,59.69
2022-08-20T07:51:19.129Z,56.49
2022-08-20T07:53:47.021Z,56.12
2022-08-20T07:56:16.145Z,56.76
2022-08-20T07:58:50.012Z,55.85
2022-08-20T08:01:22.804Z,59.02
2022-08-20T08:03:50.736Z,58.38
2022-08-20T08:06:29.082Z,56.33
2022-08-20T08:09:01.603Z,56.97
2022-08-20T08:11:28.323Z,56.08
2022-08-20T08:13:55.056Z,55.25
2022-08-20T08:16:21.908Z,55.81
2022-08-20T08:18:53.143Z,57.48
2022-08-20T08:21:20.981Z,56.55
2022-08-20T08:23:47.814Z,55.29
2022-08-20T08:26:19.009Z,55.68
2022-08-20T08:28:46.735Z,55.12
2022-08-20T08:31:14.729Z,54.98
2022-08-20T08:33:42.441Z,56.14
2022-08-20T08:36:15.055Z,54.66
2022-08-20T08:38:44.694Z,53.65
2022-08-20T08:41:29.320Z,52.62
2022-08-20T08:44:06.776Z,53.68
2022-08-20T08:46:40.300Z,54.44
2022-08-20T08:49:12.298Z,52.13
2022-08-20T08:51:48.764Z,48.56
2022-08-20T08:54:21.406Z,42.49
2022-08-20T08:56:50.043Z,46.71
2022-08-20T08:59:18.745Z,46.69
2022-08-20T09:01:53.707Z,48.32
2022-08-20T09:04:28.443Z,46.93
2022-08-20T09:06:55.092Z,42.91
2022-08-20T09:09:26.408Z,42.08
2022-08-20T09:11:56.201Z,43.59
2022-08-20T09:14:25.556Z,39.97
2022-08-20T09:16:53.604Z,38.21
2022-08-20T09:19:21.503Z,37.60
2022-08-20T09:21:48.436Z,37.45
2022-08-20T09:24:15.122Z,35.37
2022-08-20T09:26:41.843Z,35.91
2022-08-20T09:29:08.396Z,36.11
2022-08-20T09:31:37.767Z,36.55
2022-08-20T09:34:05.834Z,37.14
2022-08-20T09:36:33.121Z,36.15
2022-08-20T09:39:00.734Z,35.23
2022-08-20T09:41:29.845Z,35.67
2022-08-20T09:43:56.415Z,34.04
2022-08-20T09:46:27.214Z,35.86
2022-08-20T09:48:55.237Z,36.13
2022-08-20T09:51:22.575Z,35.89
2022-08-20T09:53:49.348Z,35.19
2022-08-20T09:56:17.032Z,35.45
2022-08-20T09:58:53.341Z,36.44
2022-08-20T10:01:21.904Z,37.45
2022-08-20T10:03:49.646Z,37.56
2022-08-20T10:06:19.757Z,36.35
2022-08-20T10:08:47.229Z,36.57
2022-08-20T10:11:15.099Z,35.55
2022-08-20T10:13:42.004Z,35.37
2022-08-20T10:16:08.751Z,35.02
2022-08-20T10:18:36.656Z,34.07
2022-08-20T10:21:08.599Z,33.63
2022-08-20T10:23:35.277Z,35.04
2022-08-20T10:26:01.896Z,36.13
2022-08-20T10:28:28.601Z,34.83
2022-08-20T10:30:55.161Z,36.01
2022-08-20T10:33:21.955Z,35.12
2022-08-20T10:35:48.581Z,34.65
2022-08-20T10:38:16.322Z,36.32
2022-08-20T10:40:43.081Z,35.19
2022-08-20T10:43:19.123Z,36.06
2022-08-20T10:45:45.863Z,35.02
2022-08-20T10:48:12.798Z,34.55
2022-08-20T10:50:39.697Z,35.45
2022-08-20T10:53:06.398Z,32.70
2022-08-20T10:55:33.035Z,32.94
2022-08-20T10:57:59.786Z,33.50
2022-08-20T11:00:26.605Z,33.99
2022-08-20T11:02:53.235Z,33.49
2022-08-20T11:05:19.943Z,34.03
2022-08-20T11:07:55.129Z,34.93
2022-08-20T11:10:29.203Z,34.49
2022-08-20T11:12:56.167Z,33.79
2022-08-20T11:15:22.978Z,35.04
2022-08-20T11:17:49.981Z,33.82
2022-08-20T11:20:19.618Z,34.42
2022-08-20T11:22:47.071Z,36.05
2022-08-20T11:25:13.788Z,35.00
2022-08-20T11:27:45.017Z,34.47
2022-08-20T11:30:15.376Z,33.52
2022-08-20T11:32:42.075Z,33.68
2022-08-20T11:35:38.550Z,34.05
2022-08-20T11:37:56.554Z,37.14
2022-08-20T11:40:24.758Z,35.38
2022-08-20T11:43:12.955Z,36.61
2022-08-20T11:45:38.123Z,35.06
2022-08-20T11:48:05.276Z,34.69
2022-08-20T11:50:32.436Z,34.17
2022-08-20T11:52:59.352Z,34.79
2022-08-20T11:55:30.605Z,34.73
2022-08-20T11:57:59.812Z,35.34
2022-08-20T12:00:31.917Z,34.80
2022-08-20T12:02:59.489Z,35.28
2022-08-20T12:05:27.448Z,34.42
2022-08-20T12:07:54.146Z,33.83
2022-08-20T12:10:22.982Z,32.67
2022-08-20T12:12:49.741Z,34.32
2022-08-20T12:15:16.582Z,34.10
2022-08-20T12:17:43.278Z,32.67
2022-08-20T12:20:13.410Z,34.04
2022-08-20T12:22:40.602Z,33.46
2022-08-20T12:25:08.584Z,33.10
2022-08-20T12:27:37.339Z,33.28
2022-08-20T12:30:08.856Z,33.95
2022-08-20T12:32:35.692Z,33.43
2022-08-20T12:35:02.840Z,33.80
2022-08-20T12:37:31.512Z,33.53
2022-08-20T12:40:00.235Z,33.80
2022-08-20T12:42:29.181Z,34.23
2022-08-20T12:44:56.406Z,32.70
2022-08-20T12:47:31.659Z,34.71
2022-08-20T12:50:06.702Z,33.43
2022-08-20T12:52:33.749Z,32.95
2022-08-20T12:55:01.104Z,32.38
2022-08-20T12:57:31.062Z,33.47
2022-08-20T13:00:04.838Z,34.80
2022-08-20T13:02:31.766Z,34.17
2022-08-20T13:05:04.305Z,33.45
2022-08-20T13:07:32.518Z,35.19
2022-08-20T13:10:00.306Z,33.97
2022-08-20T13:12:27.082Z,34.43
2022-08-20T13:14:53.945Z,34.59
2022-08-20T13:17:22.669Z,32.48
2022-08-20T13:20:09.506Z,32.72
2022-08-20T13:22:36.669Z,33.25
2022-08-20T13:25:05.067Z,33.58
2022-08-20T13:27:31.919Z,31.31
2022-08-20T13:29:59.152Z,32.77
2022-08-20T13:32:26.453Z,32.34
2022-08-20T13:34:53.213Z,32.61
2022-08-20T13:37:25.536Z,31.63
2022-08-20T13:39:54.411Z,32.73
2022-08-20T13:42:21.380Z,32.47
2022-08-20T13:44:49.447Z,31.60
2022-08-20T13:47:23.024Z,32.91
2022-08-20T13:49:56.096Z,32.68
2022-08-20T13:52:23.438Z,32.99
2022-08-20T13:54:50.609Z,33.93
2022-08-20T13:57:18.764Z,33.33
2022-08-20T13:59:48.192Z,31.79
2022-08-20T14:02:16.326Z,31.90
2022-08-20T14:04:42.893Z,32.68
2022-08-20T14:07:15.230Z,31.95
2022-08-20T14:09:43.976Z,31.53
2022-08-20T14:12:12.342Z,32.78
2022-08-20T14:14:40.502Z,31.71
2022-08-20T14:17:17.553Z,30.97
2022-08-20T14:19:45.830Z,30.20
2022-08-20T14:22:12.793Z,30.56
2022-08-20T14:24:39.474Z,32.03
2022-08-20T14:27:09.514Z,32.14
2022-08-20T14:29:38.735Z,31.77
2022-08-20T14:32:06.830Z,31.51
2022-08-20T14:34:34.320Z,31.57
2022-08-20T14:37:22.586Z,30.62
2022-08-20T14:39:52.592Z,29.88
2022-08-20T14:42:20.730Z,30.34
2022-08-20T14:44:47.303Z,29.69
2022-08-20T14:47:26.333Z,29.72
2022-08-20T14:49:54.986Z,29.20
2022-08-20T14:52:23.321Z,28.72
2022-08-20T14:54:54.956Z,29.20
2022-08-20T14:57:21.698Z,28.59
2022-08-20T14:59:49.052Z,29.43
2022-08-20T15:02:17.258Z,29.26
2022-08-20T15:04:45.545Z,29.26
2022-08-20T15:07:25.104Z,29.60
2022-08-20T15:09:53.145Z,29.51
2022-08-20T15:12:20.250Z,29.26
2022-08-20T15:14:48.126Z,29.58
2022-08-20T15:17:24.658Z,30.24
2022-08-20T15:19:52.222Z,30.61
2022-08-20T15:22:20.135Z,30.73
2022-08-20T15:24:47.470Z,30.93
2022-08-20T15:27:22.625Z,30.98
2022-08-20T15:29:50.987Z,30.87
2022-08-20T15:32:17.790Z,30.46
2022-08-20T15:34:44.703Z,31.08
2022-08-20T15:37:12.436Z,31.12
2022-08-20T15:39:40.175Z,31.22
2022-08-20T15:42:08.388Z,30.29
2022-08-20T15:44:36.087Z,30.11
2022-08-20T15:47:31.513Z,29.84
2022-08-20T15:50:13.849Z,30.50
2022-08-20T15:52:45.073Z,30.55
2022-08-20T15:55:15.583Z,29.90
2022-08-20T15:58:10.242Z,30.23
2022-08-20T16:01:28.461Z,29.93
2022-08-20T16:04:16.622Z,29.72
2022-08-20T16:06:46.634Z,29.83
2022-08-20T16:09:18.935Z,29.93
2022-08-20T16:12:04.816Z,30.24
2022-08-20T16:14:38.301Z,30.46
2022-08-20T16:17:13.593Z,29.81
2022-08-20T16:20:09.309Z,29.68
2022-08-20T16:22:39.002Z,30.08
2022-08-20T16:25:05.972Z,30.21
2022-08-20T16:27:54.471Z,29.97
2022-08-20T16:30:43.661Z,30.20
2022-08-20T16:33:13.412Z,30.22
2022-08-20T16:35:54.667Z,30.48
2022-08-20T16:38:45.934Z,30.47
2022-08-20T16:41:24.499Z,30.47
2022-08-20T16:43:54.727Z,30.32
2022-08-20T16:46:26.036Z,30.33
2022-08-20T16:48:58.413Z,30.78
2022-08-20T16:51:40.868Z,31.18
2022-08-20T16:54:09.244Z,31.56
2022-08-20T16:56:38.853Z,31.20
2022-08-20T16:59:11.594Z,31.44
2022-08-20T17:01:39.231Z,31.95
2022-08-20T17:04:07.978Z,31.62
2022-08-20T17:06:46.356Z,31.85
2022-08-20T17:09:21.511Z,32.21
2022-08-20T17:11:48.399Z,32.07
2022-08-20T17:14:18.297Z,32.92
2022-08-20T17:16:50.657Z,33.72
2022-08-20T17:19:28.006Z,33.41
2022-08-20T17:21:56.208Z,33.26
2022-08-20T17:24:32.019Z,33.67
2022-08-20T17:27:10.580Z,33.83
2022-08-20T17:29:49.782Z,33.94
2022-08-20T17:32:24.428Z,34.51
2022-08-20T17:34:54.779Z,35.25
2022-08-20T17:37:28.358Z,35.27
2022-08-20T17:40:15.882Z,35.49
2022-08-20T17:42:58.574Z,35.18
2022-08-20T17:45:30.425Z,34.48
2022-08-20T17:48:00.056Z,34.60
2022-08-20T17:50:35.155Z,34.64
2022-08-20T17:53:09.226Z,35.05
2022-08-20T17:55:36.808Z,35.70
2022-08-20T17:58:06.761Z,35.73
2022-08-20T18:00:34.118Z,36.08
2022-08-20T18:03:15.068Z,36.59
2022-08-20T18:05:43.567Z,36.65
2022-08-20T18:08:41.633Z,37.52
2022-08-20T18:11:19.836Z,37.30
2022-08-20T18:13:59.352Z,36.95
2022-08-20T18:16:31.019Z,37.09
2022-08-20T18:19:20.783Z,37.42
2022-08-20T18:21:47.415Z,37.48
2022-08-20T18:24:38.516Z,37.06
2022-08-20T18:27:11.945Z,37.31
2022-08-20T18:29:42.883Z,37.72
2022-08-20T18:32:33.992Z,37.77
2022-08-20T18:35:31.163Z,38.11
2022-08-20T18:37:57.941Z,38.00
2022-08-20T18:40:33.259Z,38.16
2022-08-20T18:43:12.295Z,38.60
2022-08-20T18:45:38.911Z,38.44
2022-08-20T18:48:06.030Z,38.65
2022-08-20T18:50:46.245Z,39.06
2022-08-20T18:53:12.858Z,38.80
2022-08-20T18:55:45.481Z,38.37
2022-08-20T18:58:48.784Z,38.74
2022-08-20T19:01:15.640Z,38.66
2022-08-20T19:03:47.592Z,38.71
2022-08-20T19:06:41.527Z,38.65
2022-08-20T19:09:20.710Z,38.82
2022-08-20T19:12:08.973Z,38.31
2022-08-20T19:14:44.100Z,37.99
2022-08-20T19:17:14.861Z,38.44
2022-08-20T19:19:41.571Z,38.56
2022-08-20T19:22:12.686Z,38.46
2022-08-20T19:24:44.229Z,38.74
2022-08-20T19:27:12.623Z,38.81
2022-08-20T19:29:49.106Z,38.77
2022-08-20T19:32:44.476Z,38.72
2022-08-20T19:35:18.154Z,39.48
2022-08-20T19:37:50.525Z,39.28
2022-08-20T19:40:38.923Z,39.46
2022-08-20T19:43:14.384Z,39.58
2022-08-20T19:45:55.728Z,39.40
2022-08-20T19:48:41.624Z,39.66
2022-08-20T19:51:25.448Z,39.42
2022-08-20T19:53:52.905Z,39.28
2022-08-20T19:56:25.497Z,38.95
2022-08-20T19:59:05.185Z,38.92
2022-08-20T20:01:33.727Z,38.63
2022-08-20T20:04:03.474Z,39.79
2022-08-20T20:06:36.242Z,39.09
2022-08-20T20:09:28.038Z,39.17
2022-08-20T20:12:10.754Z,39.06
2022-08-20T20:14:52.514Z,39.65
2022-08-20T20:17:36.631Z,39.36
2022-08-20T20:20:34.990Z,39.89
2022-08-20T20:23:14.340Z,39.59
2022-08-20T20:25:45.076Z,40.72
2022-08-20T20:28:11.843Z,39.89
2022-08-20T20:30:40.277Z,39.19
2022-08-20T20:33:17.485Z,39.16
2022-08-20T20:35:46.008Z,40.24
2022-08-20T20:38:27.723Z,39.79
2022-08-20T20:41:01.953Z,40.05
2022-08-20T20:43:33.350Z,40.16
2022-08-20T20:46:21.530Z,40.33
2022-08-20T20:48:55.375Z,40.17
2022-08-20T20:51:26.367Z,40.42
2022-08-20T20:53:56.911Z,39.84
2022-08-20T20:56:26.541Z,40.38
2022-08-20T20:58:53.787Z,39.63
2022-08-20T21:01:27.292Z,39.54
2022-08-20T21:04:09.616Z,39.29
2022-08-20T21:06:36.553Z,38.68
2022-08-20T21:09:03.176Z,38.41
2022-08-20T21:11:29.750Z,37.73
2022-08-20T21:13:56.583Z,37.40
2022-08-20T21:16:23.206Z,37.56
2022-08-20T21:18:49.823Z,38.53
2022-08-20T21:21:16.441Z,38.22
2022-08-20T21:23:43.078Z,39.07
2022-08-20T21:26:09.895Z,39.57
2022-08-20T21:28:36.527Z,40.68
2022-08-20T21:31:03.220Z,41.86
2022-08-20T21:33:30.019Z,42.02
2022-08-20T21:35:56.885Z,41.16
2022-08-20T21:38:23.964Z,41.52
2022-08-20T21:40:50.899Z,42.59
2022-08-20T21:43:17.986Z,43.24
2022-08-20T21:45:45.668Z,43.57
2022-08-20T21:48:16.410Z,43.55
2022-08-20T21:50:43.632Z,44.01
2022-08-20T21:53:12.897Z,45.56
2022-08-20T21:55:40.924Z,45.59
2022-08-20T21:58:08.379Z,45.15
2022-08-20T22:00:47.157Z,45.60
2022-08-20T22:03:15.190Z,46.29
2022-08-20T22:05:42.314Z,47.69
2022-08-20T22:08:10.253Z,47.67
2022-08-20T22:10:37.567Z,46.85
2022-08-20T22:13:04.284Z,47.38
2022-08-20T22:15:30.894Z,48.05
2022-08-20T22:17:57.642Z,47.76
2022-08-20T22:20:25.103Z,47.42
2022-08-20T22:22:51.896Z,47.66
2022-08-20T22:25:18.553Z,48.81
2022-08-20T22:27:45.815Z,49.01
2022-08-20T22:30:12.548Z,48.43
2022-08-20T22:32:52.097Z,48.12
2022-08-20T22:35:25.873Z,47.81
2022-08-20T22:37:52.445Z,47.70
2022-08-20T22:40:19.107Z,46.33
2022-08-20T22:42:45.685Z,46.73
2022-08-20T22:45:14.765Z,47.41
2022-08-20T22:47:43.046Z,48.14
2022-08-20T22:50:12.048Z,47.71
2022-08-20T22:52:42.043Z,47.82
2022-08-20T22:55:09.516Z,47.76
2022-08-20T22:57:36.575Z,47.92
2022-08-20T23:00:08.743Z,47.34
2022-08-20T23:02:35.357Z,47.89
2022-08-20T23:05:02.220Z,46.87
2022-08-20T23:07:28.899Z,47.17
2022-08-20T23:09:55.493Z,47.34
2022-08-20T23:12:22.496Z,47.43
2022-08-20T23:14:49.062Z,47.95
2022-08-20T23:17:19.998Z,47.62
2022-08-20T23:19:48.808Z,48.10
2022-08-20T23:22:16.008Z,48.18
2022-08-20T23:24:43.001Z,48.47
2022-08-20T23:27:14.439Z,48.73
2022-08-20T23:29:41.353Z,48.63
2022-08-20T23:32:08.334Z,49.55
2022-08-20T23:34:35.079Z,49.72
2022-08-20T23:37:02.480Z,49.17
2022-08-20T23:39:29.467Z,48.26
2022-08-20T23:41:57.437Z,49.01
2022-08-20T23:44:26.359Z,48.96
2022-08-20T23:47:01.159Z,49.75
2022-08-20T23:49:29.978Z,50.69
2022-08-20T23:51:57.803Z,51.06
2022-08-20T23:54:24.595Z,50.50
2022-08-20T23:56:51.454Z,50.00
2022-08-20T23:59:24.185Z,50.05
